createdAt,value
2022-11-27T00:00:00.694Z,44.20
2022-11-27T00:03:02.691Z,45.20
2022-11-27T00:06:22.037Z,44.70
2022-11-27T00:09:25.295Z,46.40
2022-11-27T00:12:27.048Z,48.70
2022-11-27T00:15:28.748Z,46.50
2022-11-27T00:21:34.376Z,47.50
2022-11-27T00:24:36.048Z,47.70
2022-11-27T00:30:39.745Z,48.20
2022-11-27T00:36:47.840Z,44.10
2022-11-27T00:39:50.017Z,49.30
2022-11-27T00:45:53.464Z,42.40
2022-11-27T00:51:56.978Z,48.80
2022-11-27T00:54:58.941Z,50.20
2022-11-27T01:01:05.882Z,44.10
2022-11-27T01:04:11.367Z,47.30
2022-11-27T01:07:13.088Z,49.70
2022-11-27T01:13:16.864Z,52.30
2022-11-27T01:16:21.365Z,52.80
2022-11-27T01:19:23.333Z,48.30
2022-11-27T01:22:25.060Z,43.90
2022-11-27T01:28:29.054Z,48.50
2022-11-27T01:34:33.103Z,49.50
2022-11-27T01:40:37.067Z,46.30
2022-11-27T01:46:47.294Z,63.40
2022-11-27T01:49:54.079Z,90.00
2022-11-27T01:53:03.724Z,73.10
2022-11-27T01:56:05.904Z,47.30
2022-11-27T01:59:07.711Z,49.00
2022-11-27T02:02:09.412Z,47.20
2022-11-27T02:05:17.329Z,47.30
2022-11-27T02:08:19.085Z,48.20
2022-11-27T02:14:40.104Z,52.90
2022-11-27T02:18:13.272Z,58.20
2022-11-27T02:21:37.653Z,53.40
2022-11-27T02:25:03.245Z,56.10
2022-11-27T02:28:17.277Z,51.90
2022-11-27T02:31:24.400Z,55.10
2022-11-27T02:34:46.346Z,54.60
2022-11-27T02:37:54.173Z,56.30
2022-11-27T02:41:04.234Z,52.70
2022-11-27T02:44:06.732Z,49.40
2022-11-27T02:47:08.567Z,50.10
2022-11-27T02:50:14.393Z,47.90
2022-11-27T02:53:31.481Z,48.40
2022-11-27T02:56:34.682Z,48.10
2022-11-27T02:59:37.269Z,49.90
2022-11-27T03:02:55.318Z,51.70
2022-11-27T03:06:00.869Z,50.10
2022-11-27T03:09:36.095Z,54.60
2022-11-27T03:12:37.844Z,57.00
2022-11-27T03:19:21.839Z,53.90
2022-11-27T03:22:23.920Z,47.40
2022-11-27T03:25:25.643Z,46.10
2022-11-27T03:31:29.370Z,47.80
2022-11-27T03:34:31.832Z,47.10
2022-11-27T03:37:34.603Z,45.80
2022-11-27T03:44:22.469Z,53.20
2022-11-27T03:48:08.472Z,57.80
2022-11-27T03:51:26.615Z,49.60
2022-11-27T03:54:51.784Z,48.80
2022-11-27T03:58:03.553Z,45.70
2022-11-27T04:01:09.196Z,46.70
2022-11-27T04:04:10.854Z,49.30
2022-11-27T04:10:18.001Z,50.10
2022-11-27T04:16:21.722Z,51.70
2022-11-27T04:19:23.521Z,47.50
2022-11-27T04:25:27.362Z,43.90
2022-11-27T04:28:29.128Z,46.80
2022-11-27T04:34:33.047Z,39.70
2022-11-27T04:37:35.056Z,50.80
2022-11-27T04:40:36.758Z,44.50
2022-11-27T04:46:40.360Z,51.20
2022-11-27T04:49:42.233Z,52.70
2022-11-27T04:52:43.929Z,44.10
2022-11-27T04:58:47.361Z,47.70
2022-11-27T05:01:49.185Z,49.20
2022-11-27T05:04:50.891Z,45.30
2022-11-27T05:11:06.677Z,39.00
2022-11-27T05:14:22.905Z,40.30
2022-11-27T05:17:24.622Z,39.80
2022-11-27T05:23:28.636Z,41.00
2022-11-27T05:26:30.457Z,44.80
2022-11-27T05:29:32.280Z,42.60
2022-11-27T05:35:35.372Z,42.20
2022-11-27T05:38:37.277Z,39.40
2022-11-27T05:41:40.873Z,36.70
2022-11-27T05:44:42.891Z,46.90
2022-11-27T05:47:44.658Z,43.20
2022-11-27T05:50:46.565Z,45.80
2022-11-27T05:53:49.690Z,51.20
2022-11-27T05:56:52.040Z,52.90
2022-11-27T05:59:53.972Z,49.50
2022-11-27T06:02:56.618Z,52.40
2022-11-27T06:05:58.616Z,51.40
2022-11-27T06:09:00.609Z,51.90
2022-11-27T06:12:02.407Z,48.40
2022-11-27T06:21:09.470Z,59.00
2022-11-27T06:24:11.081Z,75.90
2022-11-27T06:27:12.761Z,64.40
2022-11-27T06:33:16.195Z,57.40
2022-11-27T06:36:19.143Z,54.20
2022-11-27T06:39:20.972Z,44.80
2022-11-27T06:45:24.440Z,47.10
2022-11-27T06:51:30.089Z,49.50
2022-11-27T06:54:31.853Z,43.10
2022-11-27T07:00:35.193Z,45.10
2022-11-27T07:03:36.977Z,41.70
2022-11-27T07:12:42.525Z,38.30
2022-11-27T07:15:44.696Z,43.00
2022-11-27T07:18:49.104Z,47.00
2022-11-27T07:21:50.949Z,44.20
2022-11-27T07:24:52.588Z,42.30
2022-11-27T07:27:55.831Z,46.50
2022-11-27T07:30:58.914Z,46.80
2022-11-27T07:34:00.870Z,52.50
2022-11-27T07:37:02.572Z,49.60
2022-11-27T07:43:06.606Z,53.10
2022-11-27T07:49:11.041Z,50.70
2022-11-27T07:55:14.404Z,45.30
2022-11-27T07:58:16.150Z,53.00
2022-11-27T08:04:20.813Z,44.10
2022-11-27T08:07:28.740Z,43.60
2022-11-27T08:10:37.815Z,44.30
2022-11-27T08:13:39.674Z,42.10
2022-11-27T08:16:41.491Z,41.40
2022-11-27T08:19:43.293Z,42.20
2022-11-27T08:25:46.469Z,40.80
2022-11-27T08:28:48.120Z,52.20
2022-11-27T08:34:51.370Z,42.10
2022-11-27T08:40:59.687Z,39.60
2022-11-27T08:44:03.516Z,38.40
2022-11-27T08:47:07.306Z,39.60
2022-11-27T08:53:11.432Z,37.40
2022-11-27T08:56:19.142Z,41.90
2022-11-27T08:59:20.791Z,40.90
2022-11-27T09:05:24.585Z,40.00
2022-11-27T09:08:26.172Z,38.70
2022-11-27T09:14:30.073Z,39.30
2022-11-27T09:20:33.957Z,39.80
2022-11-27T09:26:37.365Z,37.90
2022-11-27T09:29:39.503Z,36.30
2022-11-27T09:32:41.335Z,36.90
2022-11-27T09:35:43.032Z,38.00
2022-11-27T09:38:45.103Z,35.60
2022-11-27T09:41:50.546Z,36.30
2022-11-27T09:44:57.520Z,35.90
2022-11-27T09:48:05.711Z,36.10
2022-11-27T09:51:19.222Z,37.00
2022-11-27T09:54:28.546Z,36.20
2022-11-27T09:57:37.265Z,35.80
2022-11-27T10:00:39.001Z,36.40
2022-11-27T10:03:42.822Z,38.10
2022-11-27T10:06:50.715Z,38.10
2022-11-27T10:10:02.490Z,35.00
2022-11-27T10:16:44.560Z,35.70
2022-11-27T10:19:58.543Z,35.80
2022-11-27T10:23:21.117Z,34.70
2022-11-27T10:26:32.278Z,35.00
2022-11-27T10:29:47.116Z,34.80
2022-11-27T10:32:55.964Z,36.80
2022-11-27T10:35:58.886Z,35.40
2022-11-27T10:39:01.624Z,37.10
2022-11-27T10:42:10.332Z,38.40
2022-11-27T10:45:22.909Z,37.80
2022-11-27T10:48:24.947Z,38.10
2022-11-27T10:51:33.689Z,34.90
2022-11-27T10:54:37.979Z,37.40
2022-11-27T10:58:04.234Z,35.80
2022-11-27T11:01:08.982Z,42.20
2022-11-27T11:04:37.010Z,38.60
2022-11-27T11:07:34.882Z,38.40
2022-11-27T11:13:58.756Z,37.50
2022-11-27T11:17:00.817Z,38.40
2022-11-27T11:20:15.140Z,38.10
2022-11-27T11:23:43.284Z,41.90
2022-11-27T11:26:48.260Z,38.40
2022-11-27T11:29:51.696Z,47.50
2022-11-27T11:33:00.267Z,44.60
2022-11-27T11:36:09.712Z,45.20
2022-11-27T11:39:23.212Z,44.40
2022-11-27T11:42:33.784Z,41.90
2022-11-27T11:45:45.383Z,42.60
2022-11-27T11:48:59.387Z,40.40
2022-11-27T11:52:22.402Z,39.60
2022-11-27T11:55:31.653Z,40.40
2022-11-27T11:58:57.274Z,40.00
2022-11-27T12:02:20.662Z,47.00
2022-11-27T12:05:39.857Z,47.10
2022-11-27T12:09:03.424Z,47.90
2022-11-27T12:12:23.671Z,46.80
2022-11-27T12:15:36.475Z,50.50
2022-11-27T12:18:55.384Z,44.30
2022-11-27T12:22:12.340Z,45.70
2022-11-27T12:25:32.764Z,38.20
2022-11-27T12:28:47.010Z,35.80
2022-11-27T12:32:10.536Z,36.80
2022-11-27T12:35:32.373Z,36.70
2022-11-27T12:38:51.689Z,39.40
2022-11-27T12:42:09.461Z,38.50
2022-11-27T12:45:35.580Z,40.30
2022-11-27T12:48:41.487Z,39.10
2022-11-27T12:51:48.466Z,40.90
2022-11-27T12:54:57.702Z,48.80
2022-11-27T12:58:04.462Z,41.00
2022-11-27T13:01:10.433Z,37.40
2022-11-27T13:04:18.895Z,35.60
2022-11-27T13:07:25.617Z,35.70
2022-11-27T13:10:32.932Z,32.20
2022-11-27T13:13:39.557Z,33.90
2022-11-27T13:16:46.619Z,34.50
2022-11-27T13:19:50.264Z,32.80
2022-11-27T13:22:52.213Z,33.50
2022-11-27T13:48:01.303Z,32.20
2022-11-27T13:51:03.900Z,38.80
2022-11-27T13:54:14.694Z,32.20
2022-11-27T13:57:18.271Z,35.50
2022-11-27T14:00:48.949Z,48.90
2022-11-27T14:03:51.151Z,46.40
2022-11-27T14:07:00.151Z,44.70
2022-11-27T14:10:09.388Z,42.90
2022-11-27T14:13:11.270Z,49.00
2022-11-27T14:16:29.278Z,52.00
2022-11-27T14:19:41.509Z,65.90
2022-11-27T14:23:09.903Z,64.90
2022-11-27T14:26:15.814Z,56.30
2022-11-27T14:29:20.793Z,58.80
2022-11-27T14:32:22.424Z,59.00
2022-11-27T14:35:26.308Z,56.90
2022-11-27T14:38:29.623Z,50.50
2022-11-27T14:41:31.972Z,46.10
2022-11-27T14:44:34.296Z,49.60
2022-11-27T14:47:36.654Z,50.90
2022-11-27T14:50:38.631Z,50.40
2022-11-27T14:53:40.621Z,55.60
2022-11-27T14:56:43.797Z,56.80
2022-11-27T14:59:45.652Z,54.00
2022-11-27T15:02:51.294Z,54.50
2022-11-27T15:06:02.184Z,47.90
2022-11-27T15:09:30.386Z,56.30
2022-11-27T15:12:31.433Z,52.90
2022-11-27T15:15:39.954Z,52.70
2022-11-27T15:18:42.497Z,50.90
2022-11-27T15:21:49.046Z,54.20
2022-11-27T15:25:02.146Z,52.70
2022-11-27T15:28:24.948Z,53.10
2022-11-27T15:31:37.777Z,57.10
2022-11-27T15:34:40.539Z,63.50
2022-11-27T15:37:42.863Z,63.40
2022-11-27T15:40:44.512Z,62.60
2022-11-27T15:43:46.301Z,63.90
2022-11-27T15:49:50.149Z,73.30
2022-11-27T15:52:51.989Z,74.50
2022-11-27T15:55:53.664Z,86.60
2022-11-27T15:58:55.354Z,80.70
2022-11-27T16:04:59.920Z,85.00
2022-11-27T16:11:06.166Z,85.90
2022-11-27T16:14:07.762Z,87.80
2022-11-27T16:17:09.471Z,65.60
2022-11-27T16:20:11.431Z,62.30
2022-11-27T16:23:13.027Z,59.40
2022-11-27T16:26:14.841Z,62.20
2022-11-27T16:29:16.719Z,73.20
2022-11-27T16:32:18.701Z,78.10
2022-11-27T16:38:22.160Z,63.60
2022-11-27T16:41:24.677Z,61.50
2022-11-27T16:44:26.587Z,60.10
2022-11-27T16:47:33.602Z,62.90
2022-11-27T16:50:36.191Z,58.30
2022-11-27T16:53:43.098Z,57.60
2022-11-27T16:56:44.917Z,55.60
2022-11-27T16:59:46.657Z,65.30
2022-11-27T17:05:51.562Z,87.90
2022-11-27T17:08:54.658Z,80.20
2022-11-27T17:11:56.376Z,75.80
2022-11-27T17:14:58.502Z,72.90
2022-11-27T17:18:01.113Z,77.50
2022-11-27T17:21:06.178Z,82.70
2022-11-27T17:24:15.088Z,77.20
2022-11-27T17:27:18.530Z,78.70
2022-11-27T17:30:20.281Z,82.60
2022-11-27T17:33:22.437Z,86.50
2022-11-27T17:36:28.758Z,99.20
2022-11-27T17:39:33.207Z,97.30
2022-11-27T17:45:40.954Z,78.90
2022-11-27T17:48:43.233Z,85.50
2022-11-27T17:51:45.137Z,81.70
2022-11-27T17:54:47.013Z,80.80
2022-11-27T17:57:48.849Z,81.90
2022-11-27T18:03:55.146Z,79.90
2022-11-27T18:06:57.453Z,89.20
2022-11-27T18:09:59.251Z,126.90
2022-11-27T18:16:11.393Z,113.30
2022-11-27T18:19:13.267Z,127.60
2022-11-27T18:22:16.346Z,110.40
2022-11-27T18:25:18.112Z,106.00
2022-11-27T18:31:22.362Z,106.40
2022-11-27T18:34:24.226Z,101.30
2022-11-27T18:37:26.108Z,170.50
2022-11-27T18:40:28.099Z,102.10
2022-11-27T18:43:29.920Z,104.60
2022-11-27T18:49:33.635Z,83.20
2022-11-27T18:55:37.215Z,85.50
2022-11-27T18:58:39.788Z,78.40
2022-11-27T19:01:42.754Z,75.00
2022-11-27T19:04:45.331Z,74.80
2022-11-27T19:07:47.154Z,70.80
2022-11-27T19:13:53.354Z,64.50
2022-11-27T19:16:55.232Z,71.30
2022-11-27T19:22:58.625Z,68.80
2022-11-27T19:29:08.604Z,75.70
2022-11-27T19:32:10.392Z,82.00
2022-11-27T19:35:12.099Z,74.40
2022-11-27T19:38:16.974Z,81.30
2022-11-27T19:41:18.833Z,79.10
2022-11-27T19:44:20.530Z,83.70
2022-11-27T19:50:24.113Z,75.60
2022-11-27T19:53:26.761Z,84.10
2022-11-27T19:56:30.617Z,83.20
2022-11-27T19:59:32.444Z,82.90
2022-11-27T20:05:37.014Z,81.40
2022-11-27T20:08:39.316Z,86.80
2022-11-27T20:11:41.194Z,80.70
2022-11-27T20:17:45.520Z,92.70
2022-11-27T20:20:47.214Z,97.40
2022-11-27T20:23:51.032Z,117.40
2022-11-27T20:26:52.635Z,151.00
2022-11-27T20:29:55.596Z,130.00
2022-11-27T20:32:57.439Z,110.70
2022-11-27T20:35:59.479Z,87.70
2022-11-27T20:39:01.810Z,89.90
2022-11-27T20:42:03.612Z,97.70
2022-11-27T20:48:08.957Z,125.90
2022-11-27T20:51:13.876Z,109.90
2022-11-27T20:54:15.609Z,106.40
2022-11-27T20:57:17.841Z,99.20
2022-11-27T21:00:20.204Z,86.00
2022-11-27T21:03:21.819Z,86.10
2022-11-27T21:06:26.402Z,91.10
2022-11-27T21:09:28.181Z,85.50
2022-11-27T21:15:31.432Z,81.20
2022-11-27T21:18:33.108Z,78.00
2022-11-27T21:21:34.934Z,96.10
2022-11-27T21:27:38.480Z,95.90
2022-11-27T21:30:40.173Z,120.20
2022-11-27T21:36:43.624Z,157.50
2022-11-27T21:39:45.357Z,151.30
2022-11-27T21:45:48.886Z,144.40
2022-11-27T21:48:51.972Z,96.20
2022-11-27T21:51:54.450Z,93.20
2022-11-27T21:54:56.275Z,137.40
2022-11-27T22:01:01.402Z,138.00
2022-11-27T22:04:03.143Z,120.70
2022-11-27T22:10:11.566Z,94.60
2022-11-27T22:13:13.217Z,95.60
2022-11-27T22:16:18.343Z,117.10
2022-11-27T22:19:20.152Z,102.10
2022-11-27T22:22:22.024Z,90.30
2022-11-27T22:25:23.779Z,86.60
2022-11-27T22:31:35.337Z,107.70
2022-11-27T22:34:37.048Z,88.80
2022-11-27T22:40:40.336Z,87.40
2022-11-27T22:46:45.042Z,88.00
2022-11-27T22:49:46.666Z,79.10
2022-11-27T22:52:48.338Z,85.00
2022-11-27T22:59:06.028Z,85.90
2022-11-27T23:02:13.382Z,84.60
2022-11-27T23:08:19.029Z,83.50
2022-11-27T23:11:26.322Z,79.20
2022-11-27T23:14:28.126Z,83.40
2022-11-27T23:17:29.961Z,84.90
2022-11-27T23:23:33.772Z,86.90
2022-11-27T23:29:37.192Z,80.10
2022-11-27T23:35:41.205Z,82.80
2022-11-27T23:41:44.471Z,87.70
2022-11-27T23:44:46.241Z,77.00
2022-11-27T23:47:50.426Z,83.50
2022-11-27T23:50:52.113Z,91.50
2022-11-27T23:56:56.286Z,90.70
2022-11-27T23:59:58.534Z,96.10
